Time;durP1;ratioP1;P1;durP2;ratioP2;P2;SDS_P1;SDS_P2;PMS_P1;PMS_P2;Temp;Humidity;BMP_temperature;BMP_pressure;BME280_temperature;BME280_humidity;BME280_pressure;Samples;Min_cycle;Max_cycle;Signal;HPM_P1;HPM_P2
2021/06/23 05:51:57;;;;;;;18.13;10.85;;;9.60;99.90;;;;;;5277646;23;20060;-92
2021/06/23 05:54:26;;;;;;;16.02;10.23;;;9.60;99.90;;;;;;5012123;28;20040;-92
2021/06/23 05:56:52;;;;;;;18.67;11.63;;;9.70;99.90;;;;;;5020602;28;20040;-92
2021/06/23 05:59:17;;;;;;;18.90;12.15;;;9.80;99.90;;;;;;5018422;28;20458;-94
2021/06/23 06:01:43;;;;;;;18.80;11.85;;;9.80;99.90;;;;;;5002362;28;20022;-94
2021/06/23 06:04:09;;;;;;;17.05;11.52;;;9.90;99.90;;;;;;5000845;28;20049;-94
2021/06/23 06:06:35;;;;;;;15.73;11.13;;;10.00;99.90;;;;;;5001011;28;20028;-93
2021/06/23 06:09:01;;;;;;;17.65;11.90;;;10.00;99.90;;;;;;4985326;28;20041;-94
2021/06/23 06:11:26;;;;;;;17.85;11.57;;;10.10;99.90;;;;;;4984085;28;20034;-94
2021/06/23 06:13:52;;;;;;;18.42;10.68;;;10.20;99.90;;;;;;5001044;28;20496;-94
2021/06/23 06:16:18;;;;;;;17.73;10.63;;;10.20;99.80;;;;;;5004728;28;20094;-93
2021/06/23 06:18:45;;;;;;;19.23;12.05;;;10.30;99.80;;;;;;5010922;28;20371;-93
2021/06/23 06:21:11;;;;;;;20.90;11.82;;;10.40;99.70;;;;;;5015351;28;20028;-93
2021/06/23 06:23:38;;;;;;;17.73;10.93;;;10.40;99.60;;;;;;5018988;28;20018;-91
2021/06/23 06:26:04;;;;;;;18.00;11.10;;;10.50;99.60;;;;;;5016223;28;20513;-93
2021/06/23 06:28:29;;;;;;;15.85;10.73;;;10.60;99.60;;;;;;5007949;28;20124;-92
2021/06/23 06:30:57;;;;;;;18.33;10.75;;;10.60;99.60;;;;;;5020417;28;20053;-93
2021/06/23 06:33:23;;;;;;;17.08;12.43;;;10.70;99.60;;;;;;5022779;28;20032;-91
2021/06/23 06:35:48;;;;;;;18.58;11.40;;;10.80;99.60;;;;;;5028813;28;20033;-91
2021/06/23 06:38:14;;;;;;;18.83;11.10;;;10.90;99.60;;;;;;5025315;28;20485;-92
2021/06/23 06:40:40;;;;;;;21.27;12.07;;;10.90;99.50;;;;;;5020559;28;20025;-92
2021/06/23 06:43:07;;;;;;;21.10;12.70;;;11.00;99.60;;;;;;5026728;28;20063;-92
2021/06/23 06:45:33;;;;;;;24.80;14.23;;;11.10;99.60;;;;;;5008906;28;20025;-91
2021/06/23 06:48:00;;;;;;;25.98;14.48;;;11.10;99.60;;;;;;5025606;28;20025;-92
2021/06/23 06:50:25;;;;;;;31.40;16.52;;;11.20;99.90;;;;;;5017859;28;20030;-93
2021/06/23 06:52:53;;;;;;;21.33;13.55;;;11.30;99.90;;;;;;5010283;28;20029;-92
2021/06/23 06:55:21;;;;;;;25.75;16.17;;;11.40;99.90;;;;;;5019119;28;20030;-92
2021/06/23 06:57:52;;;;;;;25.17;15.77;;;11.50;99.90;;;;;;5014797;28;20030;-92
2021/06/23 07:00:27;;;;;;;26.98;16.77;;;11.60;99.90;;;;;;5017572;28;20112;-96
2021/06/23 07:02:59;;;;;;;28.75;17.00;;;11.70;99.90;;;;;;5007345;28;20030;-96
2021/06/23 07:05:26;;;;;;;26.42;14.65;;;11.80;99.90;;;;;;5011607;28;20048;-95
2021/06/23 07:07:52;;;;;;;23.35;14.25;;;12.00;99.90;;;;;;5006206;28;20037;-94
2021/06/23 07:10:18;;;;;;;24.10;13.68;;;12.20;99.90;;;;;;5007648;28;20024;-92
2021/06/23 07:12:44;;;;;;;26.80;14.82;;;12.30;99.90;;;;;;5006409;28;20034;-92
2021/06/23 07:20:21;;;;;;;22.45;12.40;;;12.80;99.90;;;;;;5084955;23;20065;-89
2021/06/23 07:22:46;;;;;;;18.40;11.25;;;13.00;99.90;;;;;;5020561;28;20498;-92
2021/06/23 07:25:15;;;;;;;20.92;11.98;;;13.10;99.90;;;;;;5020922;28;20037;-90
2021/06/23 07:27:43;;;;;;;27.17;12.10;;;13.20;99.90;;;;;;5020245;28;20049;-91
2021/06/23 07:30:12;;;;;;;23.35;11.63;;;13.40;99.90;;;;;;5018157;28;20033;-91
2021/06/23 07:32:54;;;;;;;17.92;10.98;;;13.50;99.90;;;;;;5000083;28;20041;-90
2021/06/23 07:38:14;;;;;;;15.32;10.40;;;13.70;99.20;;;;;;5014461;28;20094;-89
2021/06/23 07:43:15;;;;;;;19.65;11.20;;;14.00;97.90;;;;;;4993077;28;20438;-90
2021/06/23 07:45:52;;;;;;;19.30;11.02;;;14.20;97.40;;;;;;4993383;28;20039;-93
2021/06/23 07:53:34;;;;;;;17.42;10.30;;;14.70;95.60;;;;;;4977717;28;20050;-92
2021/06/23 07:56:23;;;;;;;17.98;9.55;;;14.80;94.80;;;;;;4996298;28;20031;-92
2021/06/23 17:17:02;;;;;;;5.80;4.35;;;19.00;75.50;;;;;;5339704;23;20015;-93
2021/06/23 17:22:20;;;;;;;5.50;4.00;;;18.90;75.90;;;;;;5133488;23;20046;-96
2021/06/23 17:24:46;;;;;;;7.15;4.55;;;18.90;76.10;;;;;;5017102;28;20069;-96
2021/06/23 17:27:12;;;;;;;6.35;4.63;;;18.80;76.10;;;;;;5015720;28;20042;-96
2021/06/23 17:29:38;;;;;;;7.55;3.88;;;18.80;76.40;;;;;;5015457;28;20018;-96
2021/06/23 17:32:05;;;;;;;5.82;3.78;;;18.90;76.50;;;;;;5014096;28;20037;-95
2021/06/23 17:34:32;;;;;;;6.22;3.72;;;19.00;76.50;;;;;;5014033;28;20007;-95
2021/06/23 17:36:58;;;;;;;5.50;3.70;;;18.90;76.50;;;;;;5016034;28;20113;-96
2021/06/23 17:39:27;;;;;;;6.95;4.03;;;18.80;76.70;;;;;;5013905;28;20033;-95
2021/06/23 17:41:55;;;;;;;5.72;4.40;;;18.80;76.80;;;;;;5012142;28;20015;-96
2021/06/23 17:44:23;;;;;;;9.40;5.38;;;18.80;76.90;;;;;;5013134;28;20041;-95
2021/06/23 17:46:49;;;;;;;6.78;4.20;;;18.80;77.10;;;;;;4994451;28;20106;-94
2021/06/23 17:49:16;;;;;;;8.10;5.07;;;18.70;77.30;;;;;;4986184;28;20011;-94
2021/06/23 17:51:52;;;;;;;5.88;4.25;;;18.70;77.70;;;;;;5009111;28;20014;-95
2021/06/23 17:54:27;;;;;;;6.60;4.68;;;18.60;78.10;;;;;;4973287;28;20099;-94
2021/06/23 17:56:53;;;;;;;9.45;4.80;;;18.60;78.40;;;;;;4971619;28;20042;-95
2021/06/23 17:59:23;;;;;;;6.63;4.72;;;18.60;78.70;;;;;;4975456;29;20028;-95
2021/06/23 18:01:53;;;;;;;6.10;4.43;;;18.60;79.10;;;;;;4974532;28;20069;-96
2021/06/23 18:04:19;;;;;;;7.25;3.58;;;18.60;79.40;;;;;;4990498;28;20520;-96
2021/06/23 18:06:56;;;;;;;6.10;3.72;;;18.50;79.50;;;;;;4990840;28;20054;-96
2021/06/23 18:09:23;;;;;;;6.03;3.47;;;18.40;79.80;;;;;;4973979;28;20030;-96
2021/06/23 18:11:50;;;;;;;4.72;2.97;;;18.30;80.40;;;;;;4981421;28;20023;-96
2021/06/23 18:14:17;;;;;;;4.28;3.00;;;18.20;80.90;;;;;;4986692;28;20020;-94
2021/06/23 18:16:45;;;;;;;6.38;2.70;;;18.20;81.10;;;;;;4982582;28;20107;-95
2021/06/23 18:19:14;;;;;;;4.55;2.83;;;18.30;81.50;;;;;;4984762;28;20464;-96
2021/06/23 18:21:48;;;;;;;3.67;2.45;;;18.20;81.80;;;;;;4985134;28;20027;-94
2021/06/23 18:24:14;;;;;;;10.98;2.60;;;18.30;82.10;;;;;;4994691;28;20042;-96
2021/06/23 18:26:40;;;;;;;4.20;2.40;;;18.30;82.20;;;;;;4989403;28;20034;-93
2021/06/23 18:29:07;;;;;;;5.40;2.50;;;18.20;82.20;;;;;;4987626;28;20062;-95
2021/06/23 18:31:34;;;;;;;3.53;2.30;;;18.20;82.40;;;;;;4992017;28;20461;-95
2021/06/23 18:34:01;;;;;;;3.53;2.13;;;18.20;82.60;;;;;;4982836;28;20026;-96
2021/06/23 18:36:28;;;;;;;2.88;1.77;;;18.20;82.90;;;;;;4988014;28;20292;-94
2021/06/23 18:38:54;;;;;;;2.22;1.65;;;18.20;83.20;;;;;;4983767;28;20105;-93
2021/06/23 18:41:19;;;;;;;1.73;1.60;;;18.20;83.40;;;;;;4992285;28;20027;-93
2021/06/23 18:43:45;;;;;;;1.95;1.50;;;18.10;83.50;;;;;;4983784;28;20034;-95
2021/06/23 18:46:11;;;;;;;2.95;1.30;;;18.10;83.80;;;;;;4991092;28;20026;-96
2021/06/23 18:48:37;;;;;;;1.55;1.27;;;18.00;84.20;;;;;;4993805;28;20027;-95
2021/06/23 18:51:04;;;;;;;1.30;1.20;;;18.00;84.60;;;;;;4997000;28;20040;-95
2021/06/23 18:53:30;;;;;;;2.47;1.00;;;18.00;84.90;;;;;;4996589;28;20025;-95
2021/06/23 18:55:56;;;;;;;1.70;1.10;;;17.90;85.30;;;;;;4994916;28;20030;-95
2021/06/23 18:58:24;;;;;;;1.77;1.20;;;17.90;85.60;;;;;;5003266;28;20023;-96
2021/06/23 19:00:52;;;;;;;2.47;1.75;;;17.90;86.20;;;;;;4993069;28;20019;-95
2021/06/23 19:03:18;;;;;;;1.90;1.60;;;17.90;86.50;;;;;;4997340;28;20027;-94
2021/06/23 19:05:46;;;;;;;2.72;1.63;;;17.90;87.00;;;;;;4969181;28;20038;-95
2021/06/23 19:08:11;;;;;;;2.40;1.55;;;17.70;87.60;;;;;;4988582;28;20043;-96
2021/06/23 19:10:37;;;;;;;3.30;1.70;;;17.60;88.10;;;;;;4987890;28;20015;-96
2021/06/23 19:13:05;;;;;;;5.68;1.77;;;17.60;88.50;;;;;;4983246;28;20023;-96
2021/06/23 19:15:33;;;;;;;2.38;1.77;;;17.60;89.00;;;;;;4983754;28;20492;-96
2021/06/23 19:18:01;;;;;;;2.25;1.95;;;17.50;89.50;;;;;;4985044;28;20416;-96
2021/06/23 19:20:27;;;;;;;4.45;2.20;;;17.50;90.00;;;;;;4972241;28;20054;-96
2021/06/23 19:22:57;;;;;;;3.40;2.70;;;17.40;90.10;;;;;;4994555;28;20082;-96
2021/06/23 19:25:23;;;;;;;2.97;2.38;;;17.30;90.40;;;;;;4987666;28;20074;-94
2021/06/23 19:27:50;;;;;;;2.40;1.90;;;17.30;90.60;;;;;;4983010;28;20041;-95
2021/06/23 19:30:31;;;;;;;3.40;2.65;;;17.10;90.90;;;;;;4995638;28;20117;-95
2021/06/23 19:32:57;;;;;;;12.35;6.22;;;17.10;91.20;;;;;;4985261;28;20039;-95
2021/06/23 19:35:37;;;;;;;7.05;3.70;;;17.00;91.40;;;;;;4984190;28;20019;-96
2021/06/23 19:38:06;;;;;;;4.45;2.28;;;17.00;91.60;;;;;;4983563;28;20126;-96
2021/06/23 19:40:33;;;;;;;3.40;2.30;;;16.90;91.70;;;;;;4981705;28;20098;-93
2021/06/23 19:43:00;;;;;;;5.35;2.90;;;16.90;91.90;;;;;;4980132;28;20035;-94
2021/06/23 19:45:33;;;;;;;5.97;2.92;;;16.90;92.10;;;;;;4981106;28;20080;-96
2021/06/23 19:47:59;;;;;;;4.80;2.35;;;16.90;92.30;;;;;;4990750;28;20050;-96
2021/06/23 19:50:26;;;;;;;7.35;2.90;;;16.80;92.30;;;;;;4984487;28;20062;-96
2021/06/23 19:52:52;;;;;;;4.03;3.00;;;16.80;92.50;;;;;;4985075;28;20033;-95
2021/06/23 19:55:24;;;;;;;5.28;2.95;;;16.80;92.60;;;;;;4977145;28;20015;-95
2021/06/23 19:58:01;;;;;;;5.50;3.08;;;16.80;92.70;;;;;;4994836;28;20058;-96
2021/06/23 20:00:29;;;;;;;4.85;3.25;;;16.80;92.80;;;;;;4970984;28;20026;-95
2021/06/23 20:02:56;;;;;;;5.00;3.63;;;16.70;92.90;;;;;;4960744;28;20023;-96
2021/06/23 20:05:26;;;;;;;6.57;3.40;;;16.70;93.00;;;;;;4991293;28;20050;-96
2021/06/23 20:07:53;;;;;;;3.78;3.03;;;16.60;93.20;;;;;;4975029;28;20043;-95
2021/06/23 20:10:20;;;;;;;6.40;3.88;;;16.60;93.40;;;;;;4986409;28;20035;-95
2021/06/23 20:12:53;;;;;;;4.60;3.92;;;16.50;93.60;;;;;;4981332;28;20038;-95
2021/06/23 20:15:21;;;;;;;6.78;4.30;;;16.40;93.80;;;;;;4976440;28;20023;-96
2021/06/23 20:17:50;;;;;;;5.32;4.00;;;16.30;94.00;;;;;;4981945;28;20034;-96
2021/06/23 20:20:49;;;;;;;5.45;3.42;;;16.20;94.20;;;;;;4980346;28;20023;-95
2021/06/23 20:23:27;;;;;;;7.35;4.00;;;16.10;94.50;;;;;;4999497;28;20043;-96
2021/06/23 20:26:24;;;;;;;5.93;4.38;;;16.10;94.80;;;;;;5002554;28;20114;-96
2021/06/23 20:29:15;;;;;;;7.07;4.15;;;16.00;95.10;;;;;;4941243;29;20036;-96
2021/06/23 20:34:34;;;;;;;5.22;3.72;;;15.70;95.80;;;;;;5091747;23;20046;-96
2021/06/23 20:37:02;;;;;;;7.60;4.47;;;15.70;96.20;;;;;;4995458;28;20023;-95
2021/06/23 20:39:28;;;;;;;7.70;5.10;;;15.60;96.60;;;;;;5010011;28;20030;-96
2021/06/23 20:41:54;;;;;;;8.48;4.80;;;15.60;96.80;;;;;;4994458;28;20048;-96
2021/06/23 20:44:20;;;;;;;8.18;5.47;;;15.60;97.10;;;;;;4998761;28;20026;-96
2021/06/23 20:46:50;;;;;;;6.82;4.65;;;15.60;97.50;;;;;;4998795;28;20042;-95
2021/06/23 20:49:17;;;;;;;7.40;5.10;;;15.50;97.70;;;;;;4996758;28;20042;-95
2021/06/23 20:51:48;;;;;;;7.82;4.72;;;15.50;98.00;;;;;;5013340;28;20030;-96
2021/06/23 20:54:28;;;;;;;7.55;5.32;;;15.40;98.40;;;;;;4996183;28;20027;-95
2021/06/23 20:57:00;;;;;;;9.10;4.53;;;15.40;98.70;;;;;;4997254;28;20043;-94
2021/06/23 20:59:26;;;;;;;7.00;5.03;;;15.30;99.10;;;;;;4998706;28;20041;-96
2021/06/23 21:01:53;;;;;;;12.35;5.55;;;15.30;99.40;;;;;;5007130;28;20034;-95
2021/06/23 21:04:22;;;;;;;9.20;5.03;;;15.30;99.60;;;;;;4980780;28;20152;-96
2021/06/23 21:09:32;;;;;;;7.63;4.82;;;15.40;99.90;;;;;;5965259;23;20063;-96
2021/06/23 21:12:00;;;;;;;8.57;4.85;;;15.40;99.90;;;;;;4997499;28;20053;-95
2021/06/23 21:14:29;;;;;;;5.78;4.47;;;15.30;99.90;;;;;;4961629;28;20031;-95
2021/06/23 21:27:26;;;;;;;9.05;5.68;;;15.20;99.90;;;;;;5461662;23;19948;-95
2021/06/23 21:52:23;;;;;;;7.97;5.00;;;14.80;99.90;;;;;;5561305;23;20034;-96
2021/06/23 21:55:03;;;;;;;7.63;4.88;;;14.70;99.90;;;;;;4971448;28;20043;-95
2021/06/23 21:57:38;;;;;;;7.15;5.00;;;14.70;99.90;;;;;;4963308;28;20065;-96
2021/06/23 22:00:04;;;;;;;7.05;4.35;;;14.60;99.90;;;;;;4952331;28;20028;-95
2021/06/23 22:02:33;;;;;;;5.35;4.15;;;14.60;99.90;;;;;;4963075;28;20074;-95
2021/06/23 22:08:16;;;;;;;6.80;4.18;;;14.50;99.90;;;;;;5152196;23;20043;-96
2021/06/23 22:54:47;;;;;;;3.78;3.30;;;14.00;99.90;;;;;;4989787;28;20056;-96
2021/06/23 22:57:17;;;;;;;3.60;2.60;;;14.00;99.90;;;;;;4999069;28;20030;-96
2021/06/23 22:59:43;;;;;;;4.65;2.72;;;13.90;99.90;;;;;;4997934;28;20022;-95
2021/06/23 23:02:10;;;;;;;3.75;3.22;;;13.90;99.90;;;;;;5016275;28;20034;-95
2021/06/23 23:04:41;;;;;;;3.95;2.90;;;13.90;99.90;;;;;;4993896;28;20064;-96
2021/06/23 23:07:09;;;;;;;4.20;2.50;;;13.90;99.90;;;;;;5014125;28;20019;-94
2021/06/23 23:09:38;;;;;;;3.85;2.70;;;13.90;99.90;;;;;;4978860;28;20061;-96
2021/06/23 23:12:04;;;;;;;3.28;2.40;;;13.90;99.90;;;;;;4996431;28;20022;-95
2021/06/23 23:14:32;;;;;;;5.15;2.90;;;13.90;99.90;;;;;;4989519;28;20045;-95
2021/06/23 23:16:59;;;;;;;5.22;3.25;;;13.90;99.90;;;;;;4989809;28;20022;-96
2021/06/23 23:19:26;;;;;;;6.93;4.03;;;13.90;99.90;;;;;;5006447;28;20026;-96
2021/06/23 23:21:57;;;;;;;4.53;3.10;;;13.90;99.90;;;;;;4987461;28;20117;-93
2021/06/23 23:24:23;;;;;;;;;;;13.90;99.90;;;;;;4984765;28;20022;-95
2021/06/23 23:26:49;;;;;;;5.05;3.83;;;13.90;99.90;;;;;;4997390;28;19914;-95
2021/06/23 23:29:15;;;;;;;7.38;4.00;;;13.90;99.90;;;;;;5002758;28;20109;-96
2021/06/23 23:31:41;;;;;;;5.13;3.45;;;13.90;99.90;;;;;;4999636;28;20046;-95
2021/06/23 23:34:07;;;;;;;5.80;4.38;;;13.90;99.90;;;;;;4981267;28;20046;-96
2021/06/23 23:36:34;;;;;;;6.57;3.10;;;13.90;99.90;;;;;;4980747;28;20034;-94
2021/06/23 23:39:00;;;;;;;3.70;2.92;;;13.90;99.90;;;;;;5002570;28;20035;-93
2021/06/23 23:41:26;;;;;;;5.10;3.42;;;13.90;99.90;;;;;;5009360;28;20026;-95
2021/06/23 23:43:55;;;;;;;6.18;3.95;;;13.90;99.90;;;;;;5004737;28;20097;-94
2021/06/23 23:46:20;;;;;;;5.97;4.20;;;13.90;99.90;;;;;;4994340;28;20033;-95
2021/06/23 23:48:46;;;;;;;6.60;4.57;;;13.90;99.90;;;;;;4977561;28;20034;-95
2021/06/23 23:51:13;;;;;;;6.00;4.20;;;13.80;99.90;;;;;;4994792;28;20100;-94
2021/06/23 23:53:39;;;;;;;6.93;4.78;;;13.80;99.90;;;;;;5020365;28;20041;-95
2021/06/23 23:56:05;;;;;;;7.82;4.55;;;13.80;99.90;;;;;;5001642;28;20057;-95
2021/06/23 23:58:32;;;;;;;7.18;5.18;;;13.70;99.90;;;;;;5020578;28;20014;-95
